sensor_id;sensor_type;location;lat;lon;timestamp;temperature;humidity
5631;DHT22;2837;50.990;7.124;2022-12-05T06:00:48;5.90;99.90
5631;DHT22;2837;50.990;7.124;2022-12-05T06:03:14;5.90;99.90
5631;DHT22;2837;50.990;7.124;2022-12-05T06:05:39;5.90;99.90
5631;DHT22;2837;50.990;7.124;2022-12-05T06:08:05;5.90;99.90
5631;DHT22;2837;50.990;7.124;2022-12-05T06:10:30;5.90;99.90
5631;DHT22;2837;50.990;7.124;2022-12-05T06:12:57;5.90;99.90
5631;DHT22;2837;50.990;7.124;2022-12-05T06:15:23;5.80;99.90
5631;DHT22;2837;50.990;7.124;2022-12-05T06:17:48;5.70;99.90
5631;DHT22;2837;50.990;7.124;2022-12-05T06:20:14;5.70;99.90
5631;DHT22;2837;50.990;7.124;2022-12-05T06:22:40;5.70;99.90
5631;DHT22;2837;50.990;7.124;2022-12-05T06:25:06;5.70;99.90
5631;DHT22;2837;50.990;7.124;2022-12-05T06:27:32;5.70;99.90
5631;DHT22;2837;50.990;7.124;2022-12-05T06:29:57;5.70;99.90
5631;DHT22;2837;50.990;7.124;2022-12-05T06:32:23;5.70;99.90
5631;DHT22;2837;50.990;7.124;2022-12-05T06:34:49;5.60;99.90
5631;DHT22;2837;50.990;7.124;2022-12-05T06:37:14;5.60;99.90
5631;DHT22;2837;50.990;7.124;2022-12-05T06:39:40;5.60;99.90
5631;DHT22;2837;50.990;7.124;2022-12-05T06:42:05;5.60;99.90
5631;DHT22;2837;50.990;7.124;2022-12-05T06:44:31;5.60;99.90
5631;DHT22;2837;50.990;7.124;2022-12-05T06:46:56;5.60;99.90
5631;DHT22;2837;50.990;7.124;2022-12-05T06:49:23;5.70;99.90
5631;DHT22;2837;50.990;7.124;2022-12-05T06:51:52;5.60;99.90
5631;DHT22;2837;50.990;7.124;2022-12-05T06:54:17;5.60;99.90
5631;DHT22;2837;50.990;7.124;2022-12-05T06:56:43;5.60;99.90
5631;DHT22;2837;50.990;7.124;2022-12-05T06:59:09;5.60;99.90
5631;DHT22;2837;50.990;7.124;2022-12-05T07:01:35;5.60;99.90
5631;DHT22;2837;50.990;7.124;2022-12-05T07:04:06;5.70;99.90
5631;DHT22;2837;50.990;7.124;2022-12-05T07:06:33;5.70;99.90
5631;DHT22;2837;50.990;7.124;2022-12-05T07:08:59;5.70;99.90
5631;DHT22;2837;50.990;7.124;2022-12-05T07:11:24;5.70;99.90
5631;DHT22;2837;50.990;7.124;2022-12-05T07:13:50;5.70;99.90
5631;DHT22;2837;50.990;7.124;2022-12-05T07:16:16;5.70;99.90
5631;DHT22;2837;50.990;7.124;2022-12-05T07:18:41;5.70;99.90
5631;DHT22;2837;50.990;7.124;2022-12-05T07:21:10;5.70;99.90
5631;DHT22;2837;50.990;7.124;2022-12-05T07:23:37;5.60;99.90
5631;DHT22;2837;50.990;7.124;2022-12-05T07:26:07;5.70;99.90
5631;DHT22;2837;50.990;7.124;2022-12-05T07:28:32;5.70;99.90
5631;DHT22;2837;50.990;7.124;2022-12-05T07:31:03;5.70;99.90
5631;DHT22;2837;50.990;7.124;2022-12-05T07:33:29;5.70;99.90
5631;DHT22;2837;50.990;7.124;2022-12-05T07:35:59;5.70;99.90
5631;DHT22;2837;50.990;7.124;2022-12-05T07:38:25;5.80;99.90
5631;DHT22;2837;50.990;7.124;2022-12-05T07:40:51;5.80;99.90
5631;DHT22;2837;50.990;7.124;2022-12-05T07:43:16;5.80;99.90
5631;DHT22;2837;50.990;7.124;2022-12-05T07:45:42;5.80;99.90
5631;DHT22;2837;50.990;7.124;2022-12-05T07:48:07;5.80;99.90
5631;DHT22;2837;50.990;7.124;2022-12-05T07:50:33;5.80;99.90
5631;DHT22;2837;50.990;7.124;2022-12-05T07:52:58;5.80;99.90
5631;DHT22;2837;50.990;7.124;2022-12-05T07:55:24;5.90;99.90
5631;DHT22;2837;50.990;7.124;2022-12-05T07:57:50;6.00;99.90
5631;DHT22;2837;50.990;7.124;2022-12-05T08:00:16;6.00;99.90
5631;DHT22;2837;50.990;7.124;2022-12-05T08:02:42;6.10;99.90
5631;DHT22;2837;50.990;7.124;2022-12-05T08:05:07;6.00;99.90
5631;DHT22;2837;50.990;7.124;2022-12-05T08:07:33;6.00;99.90
5631;DHT22;2837;50.990;7.124;2022-12-05T08:09:58;6.00;99.90
5631;DHT22;2837;50.990;7.124;2022-12-05T08:12:24;6.00;99.90
5631;DHT22;2837;50.990;7.124;2022-12-05T08:14:49;6.00;99.90
5631;DHT22;2837;50.990;7.124;2022-12-05T08:17:15;6.00;99.90
5631;DHT22;2837;50.990;7.124;2022-12-05T08:19:41;6.00;99.90
5631;DHT22;2837;50.990;7.124;2022-12-05T08:22:06;6.10;99.90
5631;DHT22;2837;50.990;7.124;2022-12-05T08:24:32;6.10;99.90
5631;DHT22;2837;50.990;7.124;2022-12-05T08:26:57;6.10;99.90
5631;DHT22;2837;50.990;7.124;2022-12-05T08:29:23;6.20;99.90
5631;DHT22;2837;50.990;7.124;2022-12-05T08:31:50;6.00;99.90
5631;DHT22;2837;50.990;7.124;2022-12-05T08:34:17;6.00;99.90
5631;DHT22;2837;50.990;7.124;2022-12-05T08:36:44;6.10;99.90
5631;DHT22;2837;50.990;7.124;2022-12-05T08:39:12;6.20;99.90
5631;DHT22;2837;50.990;7.124;2022-12-05T08:41:40;6.20;99.90
5631;DHT22;2837;50.990;7.124;2022-12-05T08:44:06;6.10;99.90
5631;DHT22;2837;50.990;7.124;2022-12-05T08:46:35;6.10;99.90
5631;DHT22;2837;50.990;7.124;2022-12-05T08:49:03;6.10;99.90
5631;DHT22;2837;50.990;7.124;2022-12-05T08:51:28;6.10;99.90
5631;DHT22;2837;50.990;7.124;2022-12-05T08:53:54;6.20;99.90
5631;DHT22;2837;50.990;7.124;2022-12-05T08:56:20;6.20;99.90
5631;DHT22;2837;50.990;7.124;2022-12-05T08:58:46;6.10;99.90
5631;DHT22;2837;50.990;7.124;2022-12-05T09:01:15;6.20;99.90
5631;DHT22;2837;50.990;7.124;2022-12-05T09:03:41;6.20;99.90
5631;DHT22;2837;50.990;7.124;2022-12-05T09:08:34;6.20;99.90
5631;DHT22;2837;50.990;7.124;2022-12-05T09:11:04;6.20;99.90
5631;DHT22;2837;50.990;7.124;2022-12-05T09:13:30;6.20;99.90
5631;DHT22;2837;50.990;7.124;2022-12-05T09:15:56;6.20;99.90
5631;DHT22;2837;50.990;7.124;2022-12-05T09:18:21;6.20;99.90
5631;DHT22;2837;50.990;7.124;2022-12-05T09:20:47;6.30;99.90
5631;DHT22;2837;50.990;7.124;2022-12-05T09:23:12;6.30;99.90
5631;DHT22;2837;50.990;7.124;2022-12-05T09:25:38;6.30;99.90
5631;DHT22;2837;50.990;7.124;2022-12-05T09:28:03;6.30;99.90
5631;DHT22;2837;50.990;7.124;2022-12-05T09:30:29;6.40;99.90
5631;DHT22;2837;50.990;7.124;2022-12-05T09:32:54;6.40;99.90
5631;DHT22;2837;50.990;7.124;2022-12-05T09:35:20;6.30;99.90
5631;DHT22;2837;50.990;7.124;2022-12-05T09:37:45;6.30;99.90
5631;DHT22;2837;50.990;7.124;2022-12-05T09:40:16;6.40;99.90
5631;DHT22;2837;50.990;7.124;2022-12-05T09:43:05;6.40;99.90
5631;DHT22;2837;50.990;7.124;2022-12-05T09:45:36;6.40;99.90
5631;DHT22;2837;50.990;7.124;2022-12-05T09:48:14;6.40;99.90
5631;DHT22;2837;50.990;7.124;2022-12-05T09:50:49;6.40;99.90
5631;DHT22;2837;50.990;7.124;2022-12-05T09:53:29;6.40;99.90
5631;DHT22;2837;50.990;7.124;2022-12-05T09:56:03;6.40;99.90
5631;DHT22;2837;50.990;7.124;2022-12-05T09:58:37;6.50;99.90
5631;DHT22;2837;50.990;7.124;2022-12-05T10:06:32;6.60;99.90
5631;DHT22;2837;50.990;7.124;2022-12-05T10:12:00;6.50;99.90
5631;DHT22;2837;50.990;7.124;2022-12-05T10:17:25;6.60;99.90
5631;DHT22;2837;50.990;7.124;2022-12-05T10:19:52;6.70;99.90
5631;DHT22;2837;50.990;7.124;2022-12-05T10:22:45;6.70;99.90
5631;DHT22;2837;50.990;7.124;2022-12-05T10:25:13;6.60;99.90
5631;DHT22;2837;50.990;7.124;2022-12-05T10:27:46;6.70;99.90
5631;DHT22;2837;50.990;7.124;2022-12-05T10:30:18;6.60;99.90
5631;DHT22;2837;50.990;7.124;2022-12-05T10:32:51;6.60;99.90
5631;DHT22;2837;50.990;7.124;2022-12-05T10:35:33;6.60;99.90
5631;DHT22;2837;50.990;7.124;2022-12-05T10:38:02;6.50;99.90
5631;DHT22;2837;50.990;7.124;2022-12-05T10:40:37;6.50;99.90
5631;DHT22;2837;50.990;7.124;2022-12-05T10:43:08;6.60;99.90
5631;DHT22;2837;50.990;7.124;2022-12-05T10:45:43;6.60;99.90
5631;DHT22;2837;50.990;7.124;2022-12-05T10:48:15;6.60;99.90
5631;DHT22;2837;50.990;7.124;2022-12-05T10:50:42;6.70;99.90
5631;DHT22;2837;50.990;7.124;2022-12-05T10:53:20;6.70;99.90
5631;DHT22;2837;50.990;7.124;2022-12-05T10:55:47;6.70;99.90
5631;DHT22;2837;50.990;7.124;2022-12-05T10:58:16;6.70;99.90
5631;DHT22;2837;50.990;7.124;2022-12-05T11:00:44;6.80;99.90
5631;DHT22;2837;50.990;7.124;2022-12-05T11:03:31;6.80;99.90
5631;DHT22;2837;50.990;7.124;2022-12-05T11:06:22;6.80;99.90
5631;DHT22;2837;50.990;7.124;2022-12-05T11:08:53;6.80;99.90
5631;DHT22;2837;50.990;7.124;2022-12-05T11:11:25;6.90;99.90
5631;DHT22;2837;50.990;7.124;2022-12-05T11:16:28;6.80;99.90
5631;DHT22;2837;50.990;7.124;2022-12-05T11:18:54;6.90;99.90
5631;DHT22;2837;50.990;7.124;2022-12-05T11:21:20;6.80;99.90
5631;DHT22;2837;50.990;7.124;2022-12-05T11:23:47;6.90;99.90
5631;DHT22;2837;50.990;7.124;2022-12-05T11:26:34;6.90;99.90
5631;DHT22;2837;50.990;7.124;2022-12-05T11:29:01;6.90;99.90
5631;DHT22;2837;50.990;7.124;2022-12-05T11:31:29;6.90;99.90
5631;DHT22;2837;50.990;7.124;2022-12-05T11:34:16;6.90;99.90
5631;DHT22;2837;50.990;7.124;2022-12-05T11:36:55;6.90;99.90
5631;DHT22;2837;50.990;7.124;2022-12-05T11:39:21;6.90;99.90
5631;DHT22;2837;50.990;7.124;2022-12-05T11:42:07;6.90;99.90
5631;DHT22;2837;50.990;7.124;2022-12-05T11:45:03;7.00;99.90
5631;DHT22;2837;50.990;7.124;2022-12-05T11:47:55;7.00;99.90
5631;DHT22;2837;50.990;7.124;2022-12-05T11:50:45;7.00;99.90
5631;DHT22;2837;50.990;7.124;2022-12-05T12:01:50;7.00;99.90
5631;DHT22;2837;50.990;7.124;2022-12-05T12:07:03;7.00;99.90
5631;DHT22;2837;50.990;7.124;2022-12-05T12:15:05;7.00;99.90
5631;DHT22;2837;50.990;7.124;2022-12-05T12:17:46;7.00;99.90
5631;DHT22;2837;50.990;7.124;2022-12-05T12:20:42;7.00;99.90
5631;DHT22;2837;50.990;7.124;2022-12-05T12:40:12;6.90;99.90
5631;DHT22;2837;50.990;7.124;2022-12-05T12:45:39;6.90;99.90
5631;DHT22;2837;50.990;7.124;2022-12-05T12:50:56;6.90;99.90
5631;DHT22;2837;50.990;7.124;2022-12-05T13:04:30;6.90;99.90
5631;DHT22;2837;50.990;7.124;2022-12-05T13:07:18;7.00;99.90
5631;DHT22;2837;50.990;7.124;2022-12-05T13:09:52;7.00;99.90
5631;DHT22;2837;50.990;7.124;2022-12-05T13:12:28;7.00;99.90
5631;DHT22;2837;50.990;7.124;2022-12-05T13:15:03;7.10;99.90
5631;DHT22;2837;50.990;7.124;2022-12-05T13:17:31;7.00;99.90
5631;DHT22;2837;50.990;7.124;2022-12-05T13:19:58;7.10;99.90
5631;DHT22;2837;50.990;7.124;2022-12-05T13:22:26;7.10;99.90
5631;DHT22;2837;50.990;7.124;2022-12-05T13:24:53;7.00;99.90
5631;DHT22;2837;50.990;7.124;2022-12-05T13:27:24;7.10;99.90
5631;DHT22;2837;50.990;7.124;2022-12-05T13:29:54;7.10;99.90
5631;DHT22;2837;50.990;7.124;2022-12-05T13:32:34;7.10;99.90
5631;DHT22;2837;50.990;7.124;2022-12-05T13:37:33;7.00;99.90
5631;DHT22;2837;50.990;7.124;2022-12-05T13:40:33;7.10;99.90
5631;DHT22;2837;50.990;7.124;2022-12-05T13:43:24;7.10;99.90
5631;DHT22;2837;50.990;7.124;2022-12-05T13:46:08;7.20;99.90
5631;DHT22;2837;50.990;7.124;2022-12-05T13:48:37;7.20;99.90
5631;DHT22;2837;50.990;7.124;2022-12-05T13:51:26;7.20;99.90
5631;DHT22;2837;50.990;7.124;2022-12-05T13:54:02;7.20;99.90
5631;DHT22;2837;50.990;7.124;2022-12-05T13:56:59;7.20;99.90
5631;DHT22;2837;50.990;7.124;2022-12-05T14:00:02;7.10;99.90
5631;DHT22;2837;50.990;7.124;2022-12-05T14:07:48;7.00;99.90
5631;DHT22;2837;50.990;7.124;2022-12-05T14:15:40;7.20;99.90
5631;DHT22;2837;50.990;7.124;2022-12-05T14:18:42;7.20;99.90
5631;DHT22;2837;50.990;7.124;2022-12-05T14:21:20;7.10;99.90
5631;DHT22;2837;50.990;7.124;2022-12-05T14:27:06;7.10;99.90
5631;DHT22;2837;50.990;7.124;2022-12-05T14:29:59;7.00;99.90
5631;DHT22;2837;50.990;7.124;2022-12-05T14:32:37;7.10;99.90
5631;DHT22;2837;50.990;7.124;2022-12-05T14:35:22;7.10;99.90
5631;DHT22;2837;50.990;7.124;2022-12-05T14:45:41;7.20;99.90
5631;DHT22;2837;50.990;7.124;2022-12-05T15:00:55;7.00;99.90
5631;DHT22;2837;50.990;7.124;2022-12-05T15:03:26;7.00;99.90
5631;DHT22;2837;50.990;7.124;2022-12-05T15:05:53;6.90;99.90
5631;DHT22;2837;50.990;7.124;2022-12-05T15:08:20;6.90;99.90
5631;DHT22;2837;50.990;7.124;2022-12-05T15:10:47;7.00;99.90
5631;DHT22;2837;50.990;7.124;2022-12-05T15:13:17;7.00;99.90
5631;DHT22;2837;50.990;7.124;2022-12-05T15:16:05;6.90;99.90
5631;DHT22;2837;50.990;7.124;2022-12-05T15:18:41;6.80;99.90
5631;DHT22;2837;50.990;7.124;2022-12-05T15:21:27;6.80;99.90
5631;DHT22;2837;50.990;7.124;2022-12-05T15:23:58;6.90;99.90
5631;DHT22;2837;50.990;7.124;2022-12-05T15:26:39;6.90;99.90
5631;DHT22;2837;50.990;7.124;2022-12-05T15:31:47;7.00;99.90
5631;DHT22;2837;50.990;7.124;2022-12-05T15:37:21;7.10;99.90
5631;DHT22;2837;50.990;7.124;2022-12-05T15:40:14;7.00;99.90
5631;DHT22;2837;50.990;7.124;2022-12-05T15:42:49;7.00;99.90
5631;DHT22;2837;50.990;7.124;2022-12-05T15:45:18;7.00;99.90
5631;DHT22;2837;50.990;7.124;2022-12-05T15:47:51;7.00;99.90
5631;DHT22;2837;50.990;7.124;2022-12-05T15:50:46;6.90;99.90
5631;DHT22;2837;50.990;7.124;2022-12-05T15:53:24;7.00;99.90
5631;DHT22;2837;50.990;7.124;2022-12-05T15:55:56;6.90;99.90
5631;DHT22;2837;50.990;7.124;2022-12-05T15:58:29;6.90;99.90
5631;DHT22;2837;50.990;7.124;2022-12-05T16:01:02;6.90;99.90
5631;DHT22;2837;50.990;7.124;2022-12-05T16:03:58;6.90;99.90
5631;DHT22;2837;50.990;7.124;2022-12-05T16:06:27;6.90;99.90
5631;DHT22;2837;50.990;7.124;2022-12-05T16:08:53;6.90;99.90
5631;DHT22;2837;50.990;7.124;2022-12-05T16:11:20;6.80;99.90
5631;DHT22;2837;50.990;7.124;2022-12-05T16:13:54;6.90;99.90
5631;DHT22;2837;50.990;7.124;2022-12-05T16:16:22;6.90;99.90
5631;DHT22;2837;50.990;7.124;2022-12-05T16:19:02;6.80;99.90
5631;DHT22;2837;50.990;7.124;2022-12-05T16:21:36;6.80;99.90
5631;DHT22;2837;50.990;7.124;2022-12-05T16:24:26;6.70;99.90
5631;DHT22;2837;50.990;7.124;2022-12-05T16:29:37;6.70;99.90
5631;DHT22;2837;50.990;7.124;2022-12-05T16:32:13;6.70;99.90
5631;DHT22;2837;50.990;7.124;2022-12-05T16:34:39;6.70;99.90
5631;DHT22;2837;50.990;7.124;2022-12-05T16:37:05;6.80;99.90
5631;DHT22;2837;50.990;7.124;2022-12-05T16:39:32;6.70;99.90
5631;DHT22;2837;50.990;7.124;2022-12-05T16:41:58;6.80;99.90
5631;DHT22;2837;50.990;7.124;2022-12-05T16:46:53;6.80;99.90
5631;DHT22;2837;50.990;7.124;2022-12-05T16:54:25;6.80;99.90
5631;DHT22;2837;50.990;7.124;2022-12-05T16:56:50;6.80;99.90
5631;DHT22;2837;50.990;7.124;2022-12-05T16:59:45;6.80;99.90
5631;DHT22;2837;50.990;7.124;2022-12-05T17:02:15;6.80;99.90
5631;DHT22;2837;50.990;7.124;2022-12-05T17:04:41;6.80;99.90
5631;DHT22;2837;50.990;7.124;2022-12-05T17:07:07;6.70;99.90
5631;DHT22;2837;50.990;7.124;2022-12-05T17:09:33;6.70;99.90
5631;DHT22;2837;50.990;7.124;2022-12-05T17:12:04;6.70;99.90
5631;DHT22;2837;50.990;7.124;2022-12-05T17:14:30;6.60;99.90
5631;DHT22;2837;50.990;7.124;2022-12-05T17:16:55;6.60;99.90
5631;DHT22;2837;50.990;7.124;2022-12-05T17:19:21;6.60;99.90
5631;DHT22;2837;50.990;7.124;2022-12-05T17:21:47;6.60;99.90
5631;DHT22;2837;50.990;7.124;2022-12-05T17:24:15;6.70;99.90
5631;DHT22;2837;50.990;7.124;2022-12-05T17:26:41;6.70;99.90
5631;DHT22;2837;50.990;7.124;2022-12-05T17:29:07;6.70;99.90
5631;DHT22;2837;50.990;7.124;2022-12-05T17:31:33;6.70;99.90
5631;DHT22;2837;50.990;7.124;2022-12-05T17:33:58;6.80;99.90
5631;DHT22;2837;50.990;7.124;2022-12-05T17:36:24;6.70;99.90
5631;DHT22;2837;50.990;7.124;2022-12-05T17:38:49;6.70;99.90
5631;DHT22;2837;50.990;7.124;2022-12-05T17:41:17;6.60;99.90
5631;DHT22;2837;50.990;7.124;2022-12-05T17:43:44;6.60;99.90
5631;DHT22;2837;50.990;7.124;2022-12-05T17:46:12;6.60;99.90
5631;DHT22;2837;50.990;7.124;2022-12-05T17:48:39;6.80;99.90
5631;DHT22;2837;50.990;7.124;2022-12-05T17:51:06;6.70;99.90
5631;DHT22;2837;50.990;7.124;2022-12-05T17:53:35;6.60;99.90
5631;DHT22;2837;50.990;7.124;2022-12-05T17:56:01;6.60;99.90
5631;DHT22;2837;50.990;7.124;2022-12-05T17:58:27;6.50;99.90
5631;DHT22;2837;50.990;7.124;2022-12-05T18:00:52;6.50;99.90
5631;DHT22;2837;50.990;7.124;2022-12-05T18:03:18;6.60;99.90
5631;DHT22;2837;50.990;7.124;2022-12-05T18:05:44;6.50;99.90
5631;DHT22;2837;50.990;7.124;2022-12-05T18:08:11;6.50;99.90
5631;DHT22;2837;50.990;7.124;2022-12-05T18:10:40;6.50;99.90
5631;DHT22;2837;50.990;7.124;2022-12-05T18:13:06;6.50;99.90
5631;DHT22;2837;50.990;7.124;2022-12-05T18:15:31;6.40;99.90
5631;DHT22;2837;50.990;7.124;2022-12-05T18:17:57;6.50;99.90
5631;DHT22;2837;50.990;7.124;2022-12-05T18:20:23;6.50;99.90
5631;DHT22;2837;50.990;7.124;2022-12-05T18:22:48;6.60;99.90
5631;DHT22;2837;50.990;7.124;2022-12-05T18:25:15;6.60;99.90
5631;DHT22;2837;50.990;7.124;2022-12-05T18:27:41;6.50;99.90
5631;DHT22;2837;50.990;7.124;2022-12-05T18:30:07;6.50;99.90
5631;DHT22;2837;50.990;7.124;2022-12-05T18:32:32;6.40;99.90
5631;DHT22;2837;50.990;7.124;2022-12-05T18:34:58;6.30;99.90
5631;DHT22;2837;50.990;7.124;2022-12-05T18:37:26;6.40;99.90
5631;DHT22;2837;50.990;7.124;2022-12-05T18:39:53;6.40;99.90
5631;DHT22;2837;50.990;7.124;2022-12-05T18:42:18;6.50;99.90
5631;DHT22;2837;50.990;7.124;2022-12-05T18:44:44;6.40;99.90
5631;DHT22;2837;50.990;7.124;2022-12-05T18:47:10;6.40;99.90
5631;DHT22;2837;50.990;7.124;2022-12-05T18:49:35;6.30;99.90
5631;DHT22;2837;50.990;7.124;2022-12-05T18:52:02;6.40;99.90
5631;DHT22;2837;50.990;7.124;2022-12-05T18:54:28;6.40;99.90
5631;DHT22;2837;50.990;7.124;2022-12-05T18:56:54;6.40;99.90
5631;DHT22;2837;50.990;7.124;2022-12-05T18:59:20;6.30;99.90
5631;DHT22;2837;50.990;7.124;2022-12-05T19:01:46;6.30;99.90
5631;DHT22;2837;50.990;7.124;2022-12-05T19:04:14;6.30;99.90
5631;DHT22;2837;50.990;7.124;2022-12-05T19:06:45;6.40;99.90
5631;DHT22;2837;50.990;7.124;2022-12-05T19:09:13;6.50;99.90
5631;DHT22;2837;50.990;7.124;2022-12-05T19:11:40;6.50;99.90
5631;DHT22;2837;50.990;7.124;2022-12-05T19:14:08;6.40;99.90
5631;DHT22;2837;50.990;7.124;2022-12-05T19:16:34;6.40;99.90
5631;DHT22;2837;50.990;7.124;2022-12-05T19:19:01;6.40;99.90
5631;DHT22;2837;50.990;7.124;2022-12-05T19:21:29;6.40;99.90
5631;DHT22;2837;50.990;7.124;2022-12-05T19:23:56;6.40;99.90
5631;DHT22;2837;50.990;7.124;2022-12-05T19:26:22;6.40;99.90
5631;DHT22;2837;50.990;7.124;2022-12-05T19:28:48;6.40;99.90
5631;DHT22;2837;50.990;7.124;2022-12-05T19:31:16;6.30;99.90
5631;DHT22;2837;50.990;7.124;2022-12-05T19:33:44;6.40;99.90
5631;DHT22;2837;50.990;7.124;2022-12-05T19:36:16;6.30;99.90
5631;DHT22;2837;50.990;7.124;2022-12-05T19:38:44;6.40;99.90
5631;DHT22;2837;50.990;7.124;2022-12-05T19:41:11;6.40;99.90
5631;DHT22;2837;50.990;7.124;2022-12-05T19:43:38;6.40;99.90
5631;DHT22;2837;50.990;7.124;2022-12-05T19:46:09;6.40;99.90
5631;DHT22;2837;50.990;7.124;2022-12-05T19:48:35;6.40;99.90
5631;DHT22;2837;50.990;7.124;2022-12-05T19:51:01;6.40;99.90
5631;DHT22;2837;50.990;7.124;2022-12-05T19:53:28;6.50;99.90
5631;DHT22;2837;50.990;7.124;2022-12-05T19:56:11;6.40;99.90
5631;DHT22;2837;50.990;7.124;2022-12-05T19:58:38;6.40;99.90
5631;DHT22;2837;50.990;7.124;2022-12-05T20:01:21;6.30;99.90
5631;DHT22;2837;50.990;7.124;2022-12-05T20:03:51;6.40;99.90
5631;DHT22;2837;50.990;7.124;2022-12-05T20:06:18;6.50;99.90
5631;DHT22;2837;50.990;7.124;2022-12-05T20:08:44;6.30;99.90
5631;DHT22;2837;50.990;7.124;2022-12-05T20:11:21;6.40;99.90
5631;DHT22;2837;50.990;7.124;2022-12-05T20:13:49;6.50;99.90
5631;DHT22;2837;50.990;7.124;2022-12-05T20:16:18;6.40;99.90
5631;DHT22;2837;50.990;7.124;2022-12-05T20:18:43;6.50;99.90
5631;DHT22;2837;50.990;7.124;2022-12-05T20:21:13;6.40;99.90
5631;DHT22;2837;50.990;7.124;2022-12-05T20:23:39;6.40;99.90
5631;DHT22;2837;50.990;7.124;2022-12-05T20:26:11;6.30;99.90
5631;DHT22;2837;50.990;7.124;2022-12-05T20:28:37;6.20;99.90
5631;DHT22;2837;50.990;7.124;2022-12-05T20:31:08;6.20;99.90
5631;DHT22;2837;50.990;7.124;2022-12-05T20:33:34;6.20;99.90
5631;DHT22;2837;50.990;7.124;2022-12-05T20:36:05;6.20;99.90
5631;DHT22;2837;50.990;7.124;2022-12-05T20:38:32;6.20;99.90
5631;DHT22;2837;50.990;7.124;2022-12-05T20:40:59;6.20;99.90
5631;DHT22;2837;50.990;7.124;2022-12-05T20:43:25;6.20;99.90
5631;DHT22;2837;50.990;7.124;2022-12-05T20:45:51;6.20;99.90
5631;DHT22;2837;50.990;7.124;2022-12-05T20:48:16;6.20;99.90
5631;DHT22;2837;50.990;7.124;2022-12-05T20:50:42;6.20;99.90
5631;DHT22;2837;50.990;7.124;2022-12-05T20:53:07;6.20;99.90
5631;DHT22;2837;50.990;7.124;2022-12-05T20:55:33;6.20;99.90
5631;DHT22;2837;50.990;7.124;2022-12-05T20:57:58;6.10;99.90
5631;DHT22;2837;50.990;7.124;2022-12-05T21:00:24;6.20;99.90
5631;DHT22;2837;50.990;7.124;2022-12-05T21:02:50;6.20;99.90
5631;DHT22;2837;50.990;7.124;2022-12-05T21:05:15;6.20;99.90
5631;DHT22;2837;50.990;7.124;2022-12-05T21:07:41;6.20;99.90
5631;DHT22;2837;50.990;7.124;2022-12-05T21:10:07;6.40;99.90
5631;DHT22;2837;50.990;7.124;2022-12-05T21:12:32;6.30;99.90
5631;DHT22;2837;50.990;7.124;2022-12-05T21:14:58;6.40;99.90
5631;DHT22;2837;50.990;7.124;2022-12-05T21:17:23;6.40;99.90
5631;DHT22;2837;50.990;7.124;2022-12-05T21:19:49;6.40;99.90
5631;DHT22;2837;50.990;7.124;2022-12-05T21:22:14;6.40;99.90
5631;DHT22;2837;50.990;7.124;2022-12-05T21:24:40;6.30;99.90
5631;DHT22;2837;50.990;7.124;2022-12-05T21:27:06;6.30;99.90
5631;DHT22;2837;50.990;7.124;2022-12-05T21:29:31;6.20;99.90
5631;DHT22;2837;50.990;7.124;2022-12-05T21:31:57;6.20;99.90
5631;DHT22;2837;50.990;7.124;2022-12-05T21:34:24;6.20;99.90
5631;DHT22;2837;50.990;7.124;2022-12-05T21:36:49;6.20;99.90
5631;DHT22;2837;50.990;7.124;2022-12-05T21:39:15;6.20;99.90
5631;DHT22;2837;50.990;7.124;2022-12-05T21:41:41;6.20;99.90
5631;DHT22;2837;50.990;7.124;2022-12-05T21:44:06;6.20;99.90
5631;DHT22;2837;50.990;7.124;2022-12-05T21:46:32;6.20;99.90
5631;DHT22;2837;50.990;7.124;2022-12-05T21:48:58;6.20;99.90
5631;DHT22;2837;50.990;7.124;2022-12-05T21:51:24;6.20;99.90
5631;DHT22;2837;50.990;7.124;2022-12-05T21:53:50;6.20;99.90
5631;DHT22;2837;50.990;7.124;2022-12-05T21:56:17;6.10;99.90
5631;DHT22;2837;50.990;7.124;2022-12-05T21:58:44;6.10;99.90
